sensor_id;sensor_type;location;lat;lon;timestamp;pressure;altitude;pressure_sealevel;temperature;humidity
44138;BME280;29800;55.942;37.314;2022-08-01T00:00:40;99765.97;;;17.76;62.83
44138;BME280;29800;55.942;37.314;2022-08-01T00:03:06;99765.44;;;17.74;62.92
44138;BME280;29800;55.942;37.314;2022-08-01T00:05:33;99761.63;;;17.70;63.09
44138;BME280;29800;55.942;37.314;2022-08-01T00:07:59;99770.22;;;17.69;63.50
44138;BME280;29800;55.942;37.314;2022-08-01T00:10:25;99766.72;;;17.63;63.57
44138;BME280;29800;55.942;37.314;2022-08-01T00:12:51;99765.34;;;17.60;63.74
44138;BME280;29800;55.942;37.314;2022-08-01T00:15:18;99755.16;;;17.56;63.75
44138;BME280;29800;55.942;37.314;2022-08-01T00:17:44;99750.75;;;17.55;64.01
44138;BME280;29800;55.942;37.314;2022-08-01T00:20:13;99759.34;;;17.53;63.85
44138;BME280;29800;55.942;37.314;2022-08-01T00:22:39;99751.94;;;17.49;63.74
44138;BME280;29800;55.942;37.314;2022-08-01T00:25:06;99755.28;;;17.45;63.96
44138;BME280;29800;55.942;37.314;2022-08-01T00:27:32;99750.06;;;17.44;63.60
44138;BME280;29800;55.942;37.314;2022-08-01T00:29:59;99747.56;;;17.42;63.73
44138;BME280;29800;55.942;37.314;2022-08-01T00:32:25;99755.88;;;17.42;63.51
44138;BME280;29800;55.942;37.314;2022-08-01T00:34:51;99751.47;;;17.41;63.40
44138;BME280;29800;55.942;37.314;2022-08-01T00:37:17;99750.63;;;17.41;62.95
44138;BME280;29800;55.942;37.314;2022-08-01T00:39:43;99753.69;;;17.39;62.88
44138;BME280;29800;55.942;37.314;2022-08-01T00:42:11;99744.88;;;17.37;62.82
44138;BME280;29800;55.942;37.314;2022-08-01T00:44:38;99748.75;;;17.36;62.83
44138;BME280;29800;55.942;37.314;2022-08-01T00:47:06;99749.88;;;17.35;62.94
44138;BME280;29800;55.942;37.314;2022-08-01T00:49:32;99751.28;;;17.33;62.81
44138;BME280;29800;55.942;37.314;2022-08-01T00:51:59;99752.72;;;17.30;62.72
44138;BME280;29800;55.942;37.314;2022-08-01T00:54:26;99758.84;;;17.27;62.75
44138;BME280;29800;55.942;37.314;2022-08-01T00:56:53;99757.19;;;17.26;62.76
44138;BME280;29800;55.942;37.314;2022-08-01T00:59:22;99758.59;;;17.23;62.75
44138;BME280;29800;55.942;37.314;2022-08-01T01:01:49;99760.00;;;17.21;62.90
44138;BME280;29800;55.942;37.314;2022-08-01T01:04:16;99751.19;;;17.19;62.84
44138;BME280;29800;55.942;37.314;2022-08-01T01:09:41;99748.41;;;17.19;63.08
44138;BME280;29800;55.942;37.314;2022-08-01T01:14:56;99747.41;;;17.09;63.12
44138;BME280;29800;55.942;37.314;2022-08-01T01:17:39;99750.22;;;17.04;63.19
44138;BME280;29800;55.942;37.314;2022-08-01T01:20:12;99744.75;;;16.99;63.20
44138;BME280;29800;55.942;37.314;2022-08-01T01:22:57;99751.63;;;17.02;63.34
44138;BME280;29800;55.942;37.314;2022-08-01T01:25:40;99748.06;;;17.01;63.37
44138;BME280;29800;55.942;37.314;2022-08-01T01:28:17;99743.16;;;16.93;63.40
44138;BME280;29800;55.942;37.314;2022-08-01T01:30:48;99736.88;;;17.12;62.29
44138;BME280;29800;55.942;37.314;2022-08-01T01:33:16;99745.41;;;16.91;63.09
44138;BME280;29800;55.942;37.314;2022-08-01T01:35:47;99742.09;;;16.84;63.73
44138;BME280;29800;55.942;37.314;2022-08-01T01:38:21;99746.59;;;16.80;64.02
44138;BME280;29800;55.942;37.314;2022-08-01T01:40:49;99744.16;;;16.73;63.96
44138;BME280;29800;55.942;37.314;2022-08-01T01:43:16;99740.91;;;16.66;63.99
44138;BME280;29800;55.942;37.314;2022-08-01T01:45:45;99743.97;;;16.64;64.23
44138;BME280;29800;55.942;37.314;2022-08-01T01:48:17;99739.84;;;16.62;64.23
44138;BME280;29800;55.942;37.314;2022-08-01T01:50:46;99739.59;;;16.58;64.61
44138;BME280;29800;55.942;37.314;2022-08-01T01:53:16;99742.66;;;16.57;64.72
44138;BME280;29800;55.942;37.314;2022-08-01T01:55:45;99741.56;;;16.52;64.40
44138;BME280;29800;55.942;37.314;2022-08-01T01:58:14;99738.00;;;16.52;64.88
44138;BME280;29800;55.942;37.314;2022-08-01T02:00:42;99743.00;;;16.50;65.00
44138;BME280;29800;55.942;37.314;2022-08-01T02:03:12;99739.16;;;16.46;65.02
44138;BME280;29800;55.942;37.314;2022-08-01T02:05:39;99733.09;;;16.44;65.24
44138;BME280;29800;55.942;37.314;2022-08-01T02:08:09;99739.44;;;16.44;65.21
44138;BME280;29800;55.942;37.314;2022-08-01T02:10:37;99738.63;;;16.44;65.22
44138;BME280;29800;55.942;37.314;2022-08-01T02:13:05;99737.81;;;16.43;65.15
44138;BME280;29800;55.942;37.314;2022-08-01T02:15:36;99736.38;;;16.46;65.45
44138;BME280;29800;55.942;37.314;2022-08-01T02:18:06;99736.97;;;16.43;65.32
44138;BME280;29800;55.942;37.314;2022-08-01T02:20:34;99735.31;;;16.42;65.39
44138;BME280;29800;55.942;37.314;2022-08-01T02:23:12;99735.28;;;16.47;65.98
44138;BME280;29800;55.942;37.314;2022-08-01T02:25:42;99735.31;;;16.42;65.77
44138;BME280;29800;55.942;37.314;2022-08-01T02:28:22;99730.09;;;16.40;66.08
44138;BME280;29800;55.942;37.314;2022-08-01T02:30:58;99733.66;;;16.41;65.91
44138;BME280;29800;55.942;37.314;2022-08-01T02:33:37;99730.09;;;16.40;66.44
44138;BME280;29800;55.942;37.314;2022-08-01T02:36:05;99730.13;;;16.35;66.32
44138;BME280;29800;55.942;37.314;2022-08-01T02:38:35;99732.06;;;16.34;66.58
44138;BME280;29800;55.942;37.314;2022-08-01T02:41:08;99735.91;;;16.39;66.70
44138;BME280;29800;55.942;37.314;2022-08-01T02:43:41;99732.00;;;16.40;66.85
44138;BME280;29800;55.942;37.314;2022-08-01T02:46:20;99734.47;;;16.41;66.83
44138;BME280;29800;55.942;37.314;2022-08-01T02:48:47;99736.13;;;16.42;66.81
44138;BME280;29800;55.942;37.314;2022-08-01T02:51:16;99737.81;;;16.43;66.88
44138;BME280;29800;55.942;37.314;2022-08-01T02:53:44;99736.66;;;16.44;67.33
44138;BME280;29800;55.942;37.314;2022-08-01T02:56:11;99735.56;;;16.45;67.38
44138;BME280;29800;55.942;37.314;2022-08-01T02:58:39;99730.84;;;16.46;67.50
44138;BME280;29800;55.942;37.314;2022-08-01T03:01:07;99733.34;;;16.47;67.59
44138;BME280;29800;55.942;37.314;2022-08-01T03:03:37;99735.81;;;16.49;67.81
44138;BME280;29800;55.942;37.314;2022-08-01T03:06:04;99735.81;;;16.49;68.03
44138;BME280;29800;55.942;37.314;2022-08-01T03:08:31;99734.41;;;16.51;68.10
44138;BME280;29800;55.942;37.314;2022-08-01T03:10:59;99736.59;;;16.54;68.27
44138;BME280;29800;55.942;37.314;2022-08-01T03:13:28;99742.91;;;16.60;68.46
44138;BME280;29800;55.942;37.314;2022-08-01T03:15:55;99736.50;;;16.65;68.31
44138;BME280;29800;55.942;37.314;2022-08-01T03:18:25;99738.09;;;16.71;68.49
44138;BME280;29800;55.942;37.314;2022-08-01T03:20:54;99738.59;;;16.78;68.43
44138;BME280;29800;55.942;37.314;2022-08-01T03:23:22;99735.75;;;16.83;68.38
44138;BME280;29800;55.942;37.314;2022-08-01T03:25:49;99731.88;;;16.89;67.92
44138;BME280;29800;55.942;37.314;2022-08-01T03:28:15;99727.09;;;16.95;67.74
44138;BME280;29800;55.942;37.314;2022-08-01T03:30:43;99726.44;;;17.03;67.46
44138;BME280;29800;55.942;37.314;2022-08-01T03:33:10;99730.81;;;17.09;66.63
44138;BME280;29800;55.942;37.314;2022-08-01T03:35:40;99723.81;;;17.17;67.17
44138;BME280;29800;55.942;37.314;2022-08-01T03:38:09;99731.47;;;17.25;66.55
44138;BME280;29800;55.942;37.314;2022-08-01T03:40:45;99720.56;;;17.34;66.93
44138;BME280;29800;55.942;37.314;2022-08-01T03:43:19;99722.16;;;17.40;66.90
44138;BME280;29800;55.942;37.314;2022-08-01T03:45:49;99723.75;;;17.47;66.48
44138;BME280;29800;55.942;37.314;2022-08-01T03:48:18;99722.53;;;17.53;65.78
44138;BME280;29800;55.942;37.314;2022-08-01T03:50:54;99724.34;;;17.62;64.97
44138;BME280;29800;55.942;37.314;2022-08-01T03:53:24;99714.34;;;17.67;64.72
44138;BME280;29800;55.942;37.314;2022-08-01T03:55:53;99722.28;;;17.73;63.94
44138;BME280;29800;55.942;37.314;2022-08-01T03:58:20;99720.25;;;17.79;62.63
44138;BME280;29800;55.942;37.314;2022-08-01T04:00:47;99713.53;;;17.85;62.21
44138;BME280;29800;55.942;37.314;2022-08-01T04:03:14;99717.59;;;17.93;62.03
44138;BME280;29800;55.942;37.314;2022-08-01T04:05:42;99717.75;;;18.02;61.59
44138;BME280;29800;55.942;37.314;2022-08-01T04:08:08;99721.28;;;18.07;61.19
44138;BME280;29800;55.942;37.314;2022-08-01T04:10:35;99707.34;;;18.12;61.13
44138;BME280;29800;55.942;37.314;2022-08-01T04:13:02;99708.91;;;18.18;61.53
44138;BME280;29800;55.942;37.314;2022-08-01T04:15:28;99706.56;;;18.26;61.15
44138;BME280;29800;55.942;37.314;2022-08-01T04:17:54;99701.75;;;18.31;61.18
44138;BME280;29800;55.942;37.314;2022-08-01T04:20:21;99707.75;;;18.39;60.76
44138;BME280;29800;55.942;37.314;2022-08-01T04:22:47;99704.06;;;18.43;60.44
44138;BME280;29800;55.942;37.314;2022-08-01T04:25:25;99704.41;;;18.55;60.75
44138;BME280;29800;55.942;37.314;2022-08-01T04:27:54;99706.56;;;18.59;60.52
44138;BME280;29800;55.942;37.314;2022-08-01T04:30:28;99711.91;;;18.69;60.09
44138;BME280;29800;55.942;37.314;2022-08-01T04:32:59;99707.41;;;18.73;59.90
44138;BME280;29800;55.942;37.314;2022-08-01T04:35:27;99709.47;;;18.81;60.63
44138;BME280;29800;55.942;37.314;2022-08-01T04:37:54;99713.84;;;18.87;59.62
44138;BME280;29800;55.942;37.314;2022-08-01T04:40:21;99715.91;;;18.96;59.30
44138;BME280;29800;55.942;37.314;2022-08-01T04:42:49;99715.19;;;19.04;58.85
44138;BME280;29800;55.942;37.314;2022-08-01T04:45:16;99707.28;;;19.11;59.15
44138;BME280;29800;55.942;37.314;2022-08-01T04:47:43;99707.66;;;19.18;58.75
44138;BME280;29800;55.942;37.314;2022-08-01T04:50:11;99714.75;;;19.24;58.99
44138;BME280;29800;55.942;37.314;2022-08-01T04:52:37;99710.47;;;19.32;57.49
44138;BME280;29800;55.942;37.314;2022-08-01T04:55:04;99706.16;;;19.40;57.65
44138;BME280;29800;55.942;37.314;2022-08-01T04:57:36;99707.03;;;19.49;57.90
44138;BME280;29800;55.942;37.314;2022-08-01T05:00:05;99712.16;;;19.56;57.15
44138;BME280;29800;55.942;37.314;2022-08-01T05:02:32;99709.81;;;19.63;57.10
44138;BME280;29800;55.942;37.314;2022-08-01T05:04:58;99711.00;;;19.71;57.03
44138;BME280;29800;55.942;37.314;2022-08-01T05:07:24;99709.47;;;19.78;57.16
44138;BME280;29800;55.942;37.314;2022-08-01T05:09:51;99705.16;;;19.86;56.99
44138;BME280;29800;55.942;37.314;2022-08-01T05:12:17;99700.78;;;19.94;56.65
44138;BME280;29800;55.942;37.314;2022-08-01T05:14:43;99706.63;;;20.06;55.68
44138;BME280;29800;55.942;37.314;2022-08-01T05:17:10;99705.06;;;20.14;55.38
44138;BME280;29800;55.942;37.314;2022-08-01T05:19:38;99706.25;;;20.22;54.09
44138;BME280;29800;55.942;37.314;2022-08-01T05:22:06;99710.22;;;20.29;53.72
44138;BME280;29800;55.942;37.314;2022-08-01T05:24:37;99707.00;;;20.36;53.53
44138;BME280;29800;55.942;37.314;2022-08-01T05:27:04;99702.84;;;20.47;53.61
44138;BME280;29800;55.942;37.314;2022-08-01T05:29:30;99696.81;;;20.54;52.63
44138;BME280;29800;55.942;37.314;2022-08-01T05:31:57;99708.31;;;20.61;52.11
44138;BME280;29800;55.942;37.314;2022-08-01T05:34:25;99703.16;;;20.68;51.90
44138;BME280;29800;55.942;37.314;2022-08-01T05:36:51;99699.59;;;20.77;53.05
44138;BME280;29800;55.942;37.314;2022-08-01T05:39:17;99703.91;;;20.83;51.93
44138;BME280;29800;55.942;37.314;2022-08-01T05:41:44;99701.47;;;20.90;52.95
44138;BME280;29800;55.942;37.314;2022-08-01T05:44:10;99702.66;;;20.98;50.64
44138;BME280;29800;55.942;37.314;2022-08-01T05:46:36;99693.84;;;21.04;49.05
44138;BME280;29800;55.942;37.314;2022-08-01T05:49:04;99698.63;;;21.13;53.23
44138;BME280;29800;55.942;37.314;2022-08-01T05:51:30;99698.16;;;21.19;49.20
44138;BME280;29800;55.942;37.314;2022-08-01T05:53:57;99697.66;;;21.26;48.93
44138;BME280;29800;55.942;37.314;2022-08-01T05:56:24;99692.97;;;21.35;48.09
44138;BME280;29800;55.942;37.314;2022-08-01T05:58:50;99694.09;;;21.43;45.65
44138;BME280;29800;55.942;37.314;2022-08-01T06:01:17;99691.38;;;21.52;46.26
44138;BME280;29800;55.942;37.314;2022-08-01T06:03:44;99688.59;;;21.60;45.30
44138;BME280;29800;55.942;37.314;2022-08-01T06:06:10;99691.72;;;21.67;44.19
44138;BME280;29800;55.942;37.314;2022-08-01T06:08:37;99696.16;;;21.77;45.09
44138;BME280;29800;55.942;37.314;2022-08-01T06:11:03;99697.00;;;21.87;45.50
44138;BME280;29800;55.942;37.314;2022-08-01T06:13:29;99690.59;;;21.95;44.22
44138;BME280;29800;55.942;37.314;2022-08-01T06:15:55;99691.44;;;22.04;43.55
44138;BME280;29800;55.942;37.314;2022-08-01T06:18:21;99687.81;;;22.12;43.50
44138;BME280;29800;55.942;37.314;2022-08-01T06:20:48;99697.63;;;22.18;42.56
44138;BME280;29800;55.942;37.314;2022-08-01T06:23:14;99695.19;;;22.26;42.91
44138;BME280;29800;55.942;37.314;2022-08-01T06:25:42;99695.53;;;22.33;42.97
44138;BME280;29800;55.942;37.314;2022-08-01T06:28:09;99694.69;;;22.41;43.44
44138;BME280;29800;55.942;37.314;2022-08-01T06:30:35;99698.63;;;22.49;42.83
44138;BME280;29800;55.942;37.314;2022-08-01T06:33:01;99696.97;;;22.56;42.23
44138;BME280;29800;55.942;37.314;2022-08-01T06:35:28;99698.91;;;22.65;42.83
44138;BME280;29800;55.942;37.314;2022-08-01T06:37:58;99698.56;;;22.75;42.83
44138;BME280;29800;55.942;37.314;2022-08-01T06:40:24;99695.72;;;22.84;42.30
44138;BME280;29800;55.942;37.314;2022-08-01T06:42:50;99693.25;;;22.91;43.33
44138;BME280;29800;55.942;37.314;2022-08-01T06:45:17;99700.91;;;23.03;42.07
44138;BME280;29800;55.942;37.314;2022-08-01T06:47:45;99702.22;;;23.14;43.81
44138;BME280;29800;55.942;37.314;2022-08-01T06:50:11;99694.13;;;23.21;42.17
44138;BME280;29800;55.942;37.314;2022-08-01T06:52:40;99699.66;;;23.30;41.52
44138;BME280;29800;55.942;37.314;2022-08-01T06:55:06;99700.31;;;23.36;42.87
44138;BME280;29800;55.942;37.314;2022-08-01T06:57:33;99693.84;;;23.44;45.34
44138;BME280;29800;55.942;37.314;2022-08-01T07:00:04;99699.50;;;23.56;41.93
44138;BME280;29800;55.942;37.314;2022-08-01T07:02:33;99694.22;;;23.63;41.74
44138;BME280;29800;55.942;37.314;2022-08-01T07:04:59;99694.63;;;23.74;42.28
44138;BME280;29800;55.942;37.314;2022-08-01T07:07:26;99700.19;;;23.83;43.19
44138;BME280;29800;55.942;37.314;2022-08-01T07:09:52;99696.19;;;23.93;40.31
44138;BME280;29800;55.942;37.314;2022-08-01T07:12:18;99703.66;;;24.01;39.42
44138;BME280;29800;55.942;37.314;2022-08-01T07:14:45;99696.34;;;24.09;40.43
44138;BME280;29800;55.942;37.314;2022-08-01T07:17:11;99701.53;;;24.19;40.84
44138;BME280;29800;55.942;37.314;2022-08-01T07:19:37;99695.88;;;24.28;39.92
44138;BME280;29800;55.942;37.314;2022-08-01T07:22:03;99699.41;;;24.37;38.63
44138;BME280;29800;55.942;37.314;2022-08-01T07:24:29;99695.81;;;24.49;38.37
44138;BME280;29800;55.942;37.314;2022-08-01T07:26:55;99698.81;;;24.65;39.84
44138;BME280;29800;55.942;37.314;2022-08-01T07:29:26;99702.44;;;24.77;38.77
44138;BME280;29800;55.942;37.314;2022-08-01T07:31:56;99699.78;;;24.93;38.49
44138;BME280;29800;55.942;37.314;2022-08-01T07:34:24;99692.94;;;25.03;37.15
44138;BME280;29800;55.942;37.314;2022-08-01T07:36:51;99700.50;;;25.15;38.18
44138;BME280;29800;55.942;37.314;2022-08-01T07:39:17;99688.03;;;25.25;36.93
44138;BME280;29800;55.942;37.314;2022-08-01T07:41:43;99693.06;;;25.31;37.96
44138;BME280;29800;55.942;37.314;2022-08-01T07:44:09;99689.47;;;25.43;38.56
44138;BME280;29800;55.942;37.314;2022-08-01T07:46:35;99688.97;;;25.54;38.09
44138;BME280;29800;55.942;37.314;2022-08-01T07:49:01;99685.22;;;25.62;36.49
44138;BME280;29800;55.942;37.314;2022-08-01T07:51:27;99692.00;;;25.73;37.89
44138;BME280;29800;55.942;37.314;2022-08-01T07:53:54;99692.31;;;25.84;39.84
44138;BME280;29800;55.942;37.314;2022-08-01T07:56:20;99680.03;;;26.01;36.51
44138;BME280;29800;55.942;37.314;2022-08-01T07:58:46;99683.03;;;26.08;35.25
44138;BME280;29800;55.942;37.314;2022-08-01T08:01:13;99684.41;;;26.14;35.62
44138;BME280;29800;55.942;37.314;2022-08-01T08:03:39;99689.78;;;26.19;35.86
44138;BME280;29800;55.942;37.314;2022-08-01T08:06:05;99692.31;;;26.25;35.01
44138;BME280;29800;55.942;37.314;2022-08-01T08:08:31;99679.94;;;26.26;36.10
44138;BME280;29800;55.942;37.314;2022-08-01T08:11:00;99689.59;;;26.28;35.39
44138;BME280;29800;55.942;37.314;2022-08-01T08:13:27;99684.84;;;26.29;33.62
44138;BME280;29800;55.942;37.314;2022-08-01T08:15:53;99686.00;;;26.28;35.29
44138;BME280;29800;55.942;37.314;2022-08-01T08:18:19;99679.41;;;26.36;35.35
44138;BME280;29800;55.942;37.314;2022-08-01T08:20:45;99664.41;;;26.44;35.05
44138;BME280;29800;55.942;37.314;2022-08-01T08:23:11;99676.75;;;26.55;35.67
44138;BME280;29800;55.942;37.314;2022-08-01T08:25:56;99681.03;;;26.65;34.37
44138;BME280;29800;55.942;37.314;2022-08-01T08:28:22;99670.09;;;26.76;37.13
44138;BME280;29800;55.942;37.314;2022-08-01T08:30:48;99667.91;;;26.85;34.21
44138;BME280;29800;55.942;37.314;2022-08-01T08:33:14;99673.72;;;26.92;34.64
44138;BME280;29800;55.942;37.314;2022-08-01T08:35:40;99671.47;;;26.98;33.77
44138;BME280;29800;55.942;37.314;2022-08-01T08:38:09;99675.78;;;26.95;31.12
44138;BME280;29800;55.942;37.314;2022-08-01T08:40:36;99676.34;;;27.01;33.28
44138;BME280;29800;55.942;37.314;2022-08-01T08:43:04;99673.19;;;27.03;31.97
44138;BME280;29800;55.942;37.314;2022-08-01T08:45:32;99670.81;;;27.05;31.38
44138;BME280;29800;55.942;37.314;2022-08-01T08:47:59;99660.22;;;27.14;30.71
44138;BME280;29800;55.942;37.314;2022-08-01T08:50:28;99664.56;;;27.27;30.93
44138;BME280;29800;55.942;37.314;2022-08-01T08:52:55;99658.19;;;27.46;32.38
44138;BME280;29800;55.942;37.314;2022-08-01T08:55:22;99668.28;;;27.67;32.51
44138;BME280;29800;55.942;37.314;2022-08-01T08:57:49;99663.66;;;27.75;30.08
44138;BME280;29800;55.942;37.314;2022-08-01T09:00:16;99651.81;;;27.85;28.83
44138;BME280;29800;55.942;37.314;2022-08-01T09:02:43;99649.34;;;27.99;30.35
44138;BME280;29800;55.942;37.314;2022-08-01T09:05:10;99660.44;;;28.12;29.41
44138;BME280;29800;55.942;37.314;2022-08-01T09:07:38;99656.56;;;28.20;29.13
44138;BME280;29800;55.942;37.314;2022-08-01T09:10:05;99661.16;;;28.28;28.61
44138;BME280;29800;55.942;37.314;2022-08-01T09:12:31;99658.63;;;28.42;28.77
44138;BME280;29800;55.942;37.314;2022-08-01T09:14:57;99660.00;;;28.52;28.49
44138;BME280;29800;55.942;37.314;2022-08-01T09:17:23;99662.88;;;28.56;29.66
44138;BME280;29800;55.942;37.314;2022-08-01T09:19:54;99653.41;;;28.64;28.77
44138;BME280;29800;55.942;37.314;2022-08-01T09:22:23;99652.72;;;28.71;28.87
44138;BME280;29800;55.942;37.314;2022-08-01T09:25:08;99644.53;;;28.85;28.48
44138;BME280;29800;55.942;37.314;2022-08-01T09:27:39;99640.31;;;28.99;28.54
44138;BME280;29800;55.942;37.314;2022-08-01T09:30:16;99642.19;;;29.14;29.72
44138;BME280;29800;55.942;37.314;2022-08-01T09:33:15;99652.56;;;29.33;29.53
44138;BME280;29800;55.942;37.314;2022-08-01T09:35:41;99640.91;;;29.35;29.38
44138;BME280;29800;55.942;37.314;2022-08-01T09:38:14;99649.88;;;29.40;29.33
44138;BME280;29800;55.942;37.314;2022-08-01T09:40:49;99647.53;;;29.46;28.52
44138;BME280;29800;55.942;37.314;2022-08-01T09:43:16;99640.75;;;29.50;27.42
44138;BME280;29800;55.942;37.314;2022-08-01T09:45:42;99649.28;;;29.58;27.77
44138;BME280;29800;55.942;37.314;2022-08-01T09:48:09;99648.66;;;29.68;29.62
44138;BME280;29800;55.942;37.314;2022-08-01T09:50:43;99648.69;;;29.72;29.28
44138;BME280;29800;55.942;37.314;2022-08-01T09:53:10;99640.66;;;29.74;28.19
44138;BME280;29800;55.942;37.314;2022-08-01T09:55:37;99650.84;;;29.78;27.34
44138;BME280;29800;55.942;37.314;2022-08-01T09:58:04;99646.34;;;29.77;27.19
44138;BME280;29800;55.942;37.314;2022-08-01T10:00:32;99639.97;;;29.80;25.99
44138;BME280;29800;55.942;37.314;2022-08-01T10:02:59;99618.22;;;29.81;26.11
44138;BME280;29800;55.942;37.314;2022-08-01T10:05:33;99632.84;;;29.90;28.10
44138;BME280;29800;55.942;37.314;2022-08-01T10:08:01;99628.50;;;29.96;27.02
44138;BME280;29800;55.942;37.314;2022-08-01T10:10:29;99626.09;;;29.98;27.41
44138;BME280;29800;55.942;37.314;2022-08-01T10:12:56;99630.47;;;29.96;26.46
44138;BME280;29800;55.942;37.314;2022-08-01T10:15:23;99623.22;;;29.95;26.23
44138;BME280;29800;55.942;37.314;2022-08-01T10:17:54;99625.75;;;30.03;26.99
44138;BME280;29800;55.942;37.314;2022-08-01T10:20:25;99628.25;;;30.12;26.70
44138;BME280;29800;55.942;37.314;2022-08-01T10:22:54;99622.75;;;30.23;27.31
44138;BME280;29800;55.942;37.314;2022-08-01T10:25:21;99626.84;;;30.29;27.00
44138;BME280;29800;55.942;37.314;2022-08-01T10:27:53;99625.00;;;30.44;27.83
44138;BME280;29800;55.942;37.314;2022-08-01T10:30:22;99631.09;;;30.50;26.32
44138;BME280;29800;55.942;37.314;2022-08-01T10:32:52;99627.91;;;30.51;26.84
44138;BME280;29800;55.942;37.314;2022-08-01T10:35:19;99617.06;;;30.53;27.31
44138;BME280;29800;55.942;37.314;2022-08-01T10:37:48;99627.59;;;30.60;27.19
44138;BME280;29800;55.942;37.314;2022-08-01T10:40:16;99619.13;;;30.60;26.79
44138;BME280;29800;55.942;37.314;2022-08-01T10:42:44;99619.22;;;30.74;27.17
44138;BME280;29800;55.942;37.314;2022-08-01T10:45:13;99622.94;;;30.82;26.52
44138;BME280;29800;55.942;37.314;2022-08-01T10:48:22;99619.31;;;30.82;25.51
44138;BME280;29800;55.942;37.314;2022-08-01T10:50:35;99625.03;;;30.92;25.64
44138;BME280;29800;55.942;37.314;2022-08-01T10:53:10;99615.31;;;30.86;24.92
44138;BME280;29800;55.942;37.314;2022-08-01T10:55:56;99620.91;;;30.79;25.99
44138;BME280;29800;55.942;37.314;2022-08-01T10:58:29;99625.06;;;30.51;26.74
44138;BME280;29800;55.942;37.314;2022-08-01T11:01:24;99621.25;;;30.33;27.26
44138;BME280;29800;55.942;37.314;2022-08-01T11:06:25;99621.59;;;29.63;27.95
44138;BME280;29800;55.942;37.314;2022-08-01T11:08:52;99605.88;;;29.32;27.75
44138;BME280;29800;55.942;37.314;2022-08-01T11:11:20;99609.09;;;29.07;27.89
44138;BME280;29800;55.942;37.314;2022-08-01T11:14:05;99610.47;;;28.94;28.97
44138;BME280;29800;55.942;37.314;2022-08-01T11:16:39;99605.94;;;28.63;27.18
44138;BME280;29800;55.942;37.314;2022-08-01T11:19:07;99607.50;;;28.60;28.33
44138;BME280;29800;55.942;37.314;2022-08-01T11:27:30;99603.50;;;28.61;29.14
44138;BME280;29800;55.942;37.314;2022-08-01T11:32:52;99600.09;;;28.29;29.78
44138;BME280;29800;55.942;37.314;2022-08-01T11:35:20;99601.53;;;27.99;30.27
44138;BME280;29800;55.942;37.314;2022-08-01T11:37:49;99604.75;;;27.82;30.46
44138;BME280;29800;55.942;37.314;2022-08-01T11:40:24;99595.28;;;27.71;30.55
44138;BME280;29800;55.942;37.314;2022-08-01T11:45:55;99598.06;;;27.51;30.77
44138;BME280;29800;55.942;37.314;2022-08-01T11:48:23;99602.19;;;27.38;30.76
44138;BME280;29800;55.942;37.314;2022-08-01T11:50:53;99601.22;;;27.30;32.22
44138;BME280;29800;55.942;37.314;2022-08-01T11:53:21;99594.50;;;27.19;32.65
44138;BME280;29800;55.942;37.314;2022-08-01T11:55:51;99588.72;;;27.11;31.50
44138;BME280;29800;55.942;37.314;2022-08-01T11:58:23;99592.63;;;27.07;31.74
44138;BME280;29800;55.942;37.314;2022-08-01T12:00:54;99599.97;;;26.95;31.95
44138;BME280;29800;55.942;37.314;2022-08-01T12:03:28;99590.97;;;26.86;32.81
44138;BME280;29800;55.942;37.314;2022-08-01T12:05:56;99587.50;;;26.77;32.53
44138;BME280;29800;55.942;37.314;2022-08-01T12:08:27;99588.16;;;26.70;32.63
44138;BME280;29800;55.942;37.314;2022-08-01T12:10:54;99587.84;;;26.59;32.92
44138;BME280;29800;55.942;37.314;2022-08-01T12:13:20;99586.50;;;26.53;33.20
44138;BME280;29800;55.942;37.314;2022-08-01T12:15:47;99578.34;;;26.48;32.85
44138;BME280;29800;55.942;37.314;2022-08-01T12:18:16;99573.09;;;26.47;32.77
44138;BME280;29800;55.942;37.314;2022-08-01T12:20:45;99573.56;;;26.49;33.57
44138;BME280;29800;55.942;37.314;2022-08-01T12:23:14;99576.53;;;26.56;33.26
44138;BME280;29800;55.942;37.314;2022-08-01T12:25:41;99582.91;;;26.69;32.79
44138;BME280;29800;55.942;37.314;2022-08-01T12:28:11;99574.75;;;26.80;32.86
44138;BME280;29800;55.942;37.314;2022-08-01T12:30:39;99578.25;;;26.92;32.69
44138;BME280;29800;55.942;37.314;2022-08-01T12:33:08;99581.41;;;27.07;33.24
44138;BME280;29800;55.942;37.314;2022-08-01T12:35:37;99566.81;;;27.17;31.98
44138;BME280;29800;55.942;37.314;2022-08-01T12:38:22;99564.81;;;27.34;31.67
44138;BME280;29800;55.942;37.314;2022-08-01T12:40:50;99574.78;;;27.50;31.60
44138;BME280;29800;55.942;37.314;2022-08-01T12:43:18;99570.28;;;27.65;29.90
44138;BME280;29800;55.942;37.314;2022-08-01T12:45:47;99566.56;;;27.81;30.67
44138;BME280;29800;55.942;37.314;2022-08-01T12:48:16;99563.72;;;27.97;30.12
44138;BME280;29800;55.942;37.314;2022-08-01T12:50:48;99565.63;;;28.12;30.57
44138;BME280;29800;55.942;37.314;2022-08-01T12:53:16;99566.75;;;28.31;30.89
44138;BME280;29800;55.942;37.314;2022-08-01T12:55:45;99561.75;;;28.44;30.80
44138;BME280;29800;55.942;37.314;2022-08-01T12:58:13;99556.84;;;28.60;30.54
44138;BME280;29800;55.942;37.314;2022-08-01T13:00:40;99561.81;;;28.70;28.46
44138;BME280;29800;55.942;37.314;2022-08-01T13:03:11;99561.94;;;28.77;28.26
44138;BME280;29800;55.942;37.314;2022-08-01T13:05:57;99559.25;;;28.85;28.57
44138;BME280;29800;55.942;37.314;2022-08-01T13:08:31;99556.44;;;28.85;29.27
44138;BME280;29800;55.942;37.314;2022-08-01T13:13:38;99556.19;;;28.70;29.14
44138;BME280;29800;55.942;37.314;2022-08-01T13:16:05;99542.91;;;28.48;29.62
44138;BME280;29800;55.942;37.314;2022-08-01T13:18:33;99546.16;;;28.27;28.88
44138;BME280;29800;55.942;37.314;2022-08-01T13:21:17;99542.72;;;28.14;28.91